createdAt,value
2018-09-17T00:00:44.704Z,99.90
2018-09-17T00:03:17.344Z,99.90
2018-09-17T00:05:50.801Z,99.90
2018-09-17T00:08:23.633Z,99.90
2018-09-17T00:10:56.523Z,99.90
2018-09-17T00:13:29.184Z,99.80
2018-09-17T00:16:01.939Z,99.80
2018-09-17T00:18:35.204Z,99.70
2018-09-17T00:21:07.839Z,99.70
2018-09-17T00:23:41.112Z,99.60
2018-09-17T00:26:13.977Z,99.60
2018-09-17T00:28:46.602Z,99.60
2018-09-17T00:31:19.362Z,99.30
2018-09-17T00:33:52.009Z,99.30
2018-09-17T00:36:24.653Z,99.20
2018-09-17T00:38:57.850Z,99.20
2018-09-17T00:41:30.478Z,99.20
2018-09-17T00:44:03.933Z,99.30
2018-09-17T00:46:36.559Z,99.30
2018-09-17T00:49:09.382Z,99.30
2018-09-17T00:51:42.671Z,99.20
2018-09-17T00:54:15.422Z,99.30
2018-09-17T00:56:48.099Z,99.30
2018-09-17T00:59:20.890Z,99.20
2018-09-17T01:01:53.698Z,99.10
2018-09-17T01:04:26.347Z,99.10
2018-09-17T01:06:59.105Z,99.10
2018-09-17T01:09:37.682Z,99.00
2018-09-17T01:12:12.881Z,98.90
2018-09-17T01:17:36.348Z,98.90
2018-09-17T01:20:09.059Z,99.20
2018-09-17T01:22:41.682Z,98.70
2018-09-17T01:25:14.364Z,98.50
2018-09-17T01:27:48.008Z,98.30
2018-09-17T01:30:20.854Z,98.40
2018-09-17T01:32:53.704Z,97.30
2018-09-17T01:35:26.529Z,97.60
2018-09-17T01:38:00.047Z,97.60
2018-09-17T01:40:33.333Z,97.40
2018-09-17T01:43:06.471Z,97.40
2018-09-17T01:45:40.599Z,97.50
2018-09-17T01:48:14.558Z,97.20
2018-09-17T01:50:47.161Z,97.20
2018-09-17T01:53:20.902Z,97.10
2018-09-17T01:55:54.301Z,97.00
2018-09-17T01:58:29.778Z,97.00
2018-09-17T02:01:02.374Z,97.00
2018-09-17T02:03:36.316Z,97.20
2018-09-17T02:06:09.622Z,96.90
2018-09-17T02:08:42.391Z,96.80
2018-09-17T02:11:15.662Z,96.50
2018-09-17T02:13:48.352Z,96.30
2018-09-17T02:16:21.754Z,96.10
2018-09-17T02:18:54.420Z,96.00
2018-09-17T02:21:29.932Z,95.80
2018-09-17T02:24:02.962Z,95.90
2018-09-17T02:26:36.072Z,95.90
2018-09-17T02:29:08.827Z,96.10
2018-09-17T02:31:42.285Z,95.90
2018-09-17T02:34:15.706Z,95.70
2018-09-17T02:36:48.452Z,95.70
2018-09-17T02:39:21.090Z,95.70
2018-09-17T02:41:54.560Z,95.90
2018-09-17T02:44:27.225Z,96.40
2018-09-17T02:46:59.995Z,96.10
2018-09-17T02:49:33.525Z,96.30
2018-09-17T02:52:06.188Z,96.30
2018-09-17T02:54:38.929Z,96.40
2018-09-17T02:57:11.676Z,96.20
2018-09-17T02:59:48.305Z,96.20
2018-09-17T03:02:21.090Z,96.20
2018-09-17T03:04:53.752Z,96.10
2018-09-17T03:07:26.543Z,96.20
2018-09-17T03:09:59.278Z,96.20
2018-09-17T03:12:31.934Z,96.20
2018-09-17T03:15:17.140Z,95.90
2018-09-17T03:17:49.892Z,95.80
2018-09-17T03:20:23.053Z,95.20
2018-09-17T03:22:55.729Z,95.30
2018-09-17T03:25:29.244Z,95.40
2018-09-17T03:28:01.942Z,95.40
2018-09-17T03:30:34.855Z,95.30
2018-09-17T03:33:08.241Z,94.70
2018-09-17T03:35:41.075Z,94.50
2018-09-17T03:38:30.816Z,94.20
2018-09-17T03:41:05.426Z,94.00
2018-09-17T03:43:39.461Z,93.90
2018-09-17T03:46:12.302Z,93.90
2018-09-17T03:48:46.195Z,93.70
2018-09-17T03:51:19.781Z,93.70
2018-09-17T03:53:52.567Z,93.50
2018-09-17T03:56:25.475Z,93.40
2018-09-17T03:58:59.840Z,93.40
2018-09-17T04:01:32.693Z,93.00
2018-09-17T04:04:06.722Z,93.30
2018-09-17T04:06:39.760Z,93.20
2018-09-17T04:09:13.096Z,93.20
2018-09-17T04:11:46.082Z,93.00
2018-09-17T04:14:19.837Z,92.90
2018-09-17T04:16:52.731Z,92.80
2018-09-17T04:19:25.566Z,92.50
2018-09-17T04:21:58.468Z,92.60
2018-09-17T04:24:31.293Z,93.10
2018-09-17T04:29:50.043Z,95.00
2018-09-17T04:32:22.739Z,95.80
2018-09-17T04:34:56.038Z,96.40
2018-09-17T04:37:28.809Z,96.80
2018-09-17T04:40:01.592Z,96.70
2018-09-17T04:42:34.837Z,96.80
2018-09-17T04:45:07.671Z,96.60
2018-09-17T04:47:40.350Z,96.50
2018-09-17T04:50:13.855Z,96.30
2018-09-17T04:52:47.437Z,95.50
2018-09-17T04:55:21.168Z,95.90
2018-09-17T04:57:53.960Z,96.40
2018-09-17T05:00:27.605Z,96.40
2018-09-17T05:03:01.090Z,96.30
2018-09-17T05:05:33.770Z,96.00
2018-09-17T05:08:06.635Z,95.60
2018-09-17T05:10:52.370Z,95.00
2018-09-17T05:13:25.180Z,94.70
2018-09-17T05:15:57.948Z,94.50
2018-09-17T05:18:30.660Z,94.30
2018-09-17T05:21:03.647Z,94.20
2018-09-17T05:23:37.137Z,94.10
2018-09-17T05:26:10.040Z,94.10
2018-09-17T05:28:43.644Z,94.20
2018-09-17T05:31:16.500Z,94.30
2018-09-17T05:33:49.845Z,94.30
2018-09-17T05:36:22.709Z,94.60
2018-09-17T05:39:05.721Z,94.60
2018-09-17T05:41:39.249Z,94.70
2018-09-17T05:44:13.255Z,94.80
2018-09-17T05:46:46.048Z,94.70
2018-09-17T05:50:19.225Z,94.20
2018-09-17T05:52:52.548Z,94.10
2018-09-17T05:55:25.354Z,94.10
2018-09-17T05:57:58.743Z,94.00
2018-09-17T06:00:31.553Z,94.00
2018-09-17T06:03:04.274Z,93.90
2018-09-17T06:05:37.912Z,93.10
2018-09-17T06:08:10.633Z,91.80
2018-09-17T06:10:44.403Z,91.20
2018-09-17T06:13:17.798Z,90.50
2018-09-17T06:15:50.416Z,90.20
2018-09-17T06:18:23.837Z,90.20
2018-09-17T06:20:59.254Z,90.50
2018-09-17T06:23:34.954Z,90.60
2018-09-17T06:26:07.617Z,91.20
2018-09-17T06:28:42.544Z,91.60
2018-09-17T06:31:15.772Z,91.90
2018-09-17T06:33:49.136Z,92.10
2018-09-17T06:36:22.477Z,91.70
2018-09-17T06:38:55.634Z,91.80
2018-09-17T06:41:28.765Z,92.00
2018-09-17T06:44:02.152Z,92.20
2018-09-17T06:46:34.994Z,91.90
2018-09-17T06:49:08.692Z,91.10
2018-09-17T06:51:44.430Z,91.00
2018-09-17T06:54:17.120Z,90.80
2018-09-17T06:56:49.898Z,90.50
2018-09-17T06:59:23.149Z,90.40
2018-09-17T07:01:57.463Z,90.00
2018-09-17T07:04:30.390Z,89.30
2018-09-17T07:07:05.029Z,88.40
2018-09-17T07:09:37.796Z,87.70
2018-09-17T07:15:42.673Z,88.30
2018-09-17T07:18:47.013Z,87.10
2018-09-17T07:21:28.669Z,86.70
2018-09-17T07:24:01.440Z,86.80
2018-09-17T07:26:34.199Z,86.80
2018-09-17T07:29:07.042Z,87.80
2018-09-17T07:31:39.857Z,87.60
2018-09-17T07:34:13.904Z,86.70
2018-09-17T07:36:47.097Z,86.80
2018-09-17T07:39:19.810Z,87.00
2018-09-17T07:41:53.640Z,87.10
2018-09-17T07:44:26.338Z,87.00
2018-09-17T07:46:59.002Z,86.90
2018-09-17T07:49:31.634Z,87.10
2018-09-17T07:52:04.609Z,87.90
2018-09-17T07:54:37.306Z,87.90
2018-09-17T07:57:10.065Z,88.60
2018-09-17T07:59:42.695Z,87.40
2018-09-17T08:02:15.339Z,88.30
2018-09-17T08:04:48.117Z,88.10
2018-09-17T08:07:22.072Z,86.50
2018-09-17T08:09:54.718Z,85.00
2018-09-17T08:12:27.347Z,85.40
2018-09-17T08:15:00.288Z,84.40
2018-09-17T08:17:33.036Z,79.80
2018-09-17T08:20:05.991Z,79.70
2018-09-17T08:22:38.664Z,79.10
2018-09-17T08:25:11.323Z,79.90
2018-09-17T08:27:44.076Z,78.80
2018-09-17T08:30:16.725Z,79.30
2018-09-17T08:32:49.415Z,78.80
2018-09-17T08:35:22.905Z,78.10
2018-09-17T08:37:55.636Z,78.80
2018-09-17T08:40:28.281Z,78.90
2018-09-17T08:43:01.130Z,79.30
2018-09-17T08:45:33.848Z,79.50
2018-09-17T08:48:06.612Z,80.10
2018-09-17T08:50:39.338Z,80.50
2018-09-17T08:53:12.144Z,80.50
2018-09-17T08:55:45.835Z,80.10
2018-09-17T08:58:29.863Z,80.40
2018-09-17T09:01:03.817Z,81.00
2018-09-17T09:03:38.614Z,80.60
2018-09-17T09:06:16.625Z,79.50
2018-09-17T09:08:49.598Z,78.70
2018-09-17T09:11:32.968Z,77.30
2018-09-17T09:14:39.612Z,78.30
2018-09-17T09:17:12.211Z,77.20
2018-09-17T09:19:45.006Z,77.50
2018-09-17T09:22:18.049Z,78.40
2018-09-17T09:24:50.709Z,79.30
2018-09-17T09:27:23.393Z,79.50
2018-09-17T09:29:56.236Z,79.20
2018-09-17T09:32:28.958Z,79.40
2018-09-17T09:35:01.805Z,77.40
2018-09-17T09:37:35.143Z,77.50
2018-09-17T09:40:07.893Z,77.50
2018-09-17T09:42:41.054Z,78.00
2018-09-17T09:45:14.714Z,77.40
2018-09-17T09:47:47.516Z,78.50
2018-09-17T09:50:20.302Z,78.70
2018-09-17T09:52:53.175Z,79.70
2018-09-17T09:55:26.049Z,79.20
2018-09-17T09:57:59.060Z,78.70
2018-09-17T10:00:37.321Z,78.80
2018-09-17T10:03:20.592Z,76.40
2018-09-17T10:05:53.538Z,78.00
2018-09-17T10:08:26.362Z,76.30
2018-09-17T10:11:06.566Z,77.50
2018-09-17T10:13:46.485Z,78.80
2018-09-17T10:16:20.362Z,77.80
2018-09-17T10:18:58.821Z,78.80
2018-09-17T10:21:31.694Z,79.70
2018-09-17T10:24:04.813Z,79.00
2018-09-17T10:26:37.688Z,77.50
2018-09-17T10:29:10.478Z,76.80
2018-09-17T10:31:43.748Z,77.70
2018-09-17T10:34:16.432Z,77.50
2018-09-17T10:36:49.169Z,79.30
2018-09-17T10:39:22.561Z,76.70
2018-09-17T10:41:55.450Z,77.40
2018-09-17T10:44:28.386Z,76.90
2018-09-17T10:47:01.261Z,77.10
2018-09-17T10:49:34.268Z,78.20
2018-09-17T10:52:07.109Z,78.60
2018-09-17T10:54:40.211Z,77.90
2018-09-17T10:57:13.417Z,77.20
2018-09-17T10:59:46.315Z,76.90
2018-09-17T11:02:19.162Z,76.90
2018-09-17T11:04:52.147Z,78.10
2018-09-17T11:07:24.941Z,76.40
2018-09-17T11:09:57.610Z,75.60
2018-09-17T11:12:30.413Z,74.40
2018-09-17T11:15:03.482Z,75.10
2018-09-17T11:17:36.320Z,75.00
2018-09-17T11:20:09.240Z,73.90
2018-09-17T11:22:42.152Z,76.10
2018-09-17T11:25:15.112Z,77.10
2018-09-17T11:27:48.486Z,75.40
2018-09-17T11:30:21.715Z,74.60
2018-09-17T11:32:54.572Z,74.20
2018-09-17T11:35:27.211Z,75.50
2018-09-17T11:38:00.959Z,74.70
2018-09-17T11:40:33.624Z,75.80
2018-09-17T11:43:06.310Z,75.70
2018-09-17T11:45:39.131Z,77.00
2018-09-17T11:48:11.824Z,76.70
2018-09-17T11:50:44.504Z,75.90
2018-09-17T11:53:17.166Z,74.30
2018-09-17T11:56:06.743Z,74.00
2018-09-17T11:58:39.484Z,73.00
2018-09-17T12:01:17.861Z,73.90
2018-09-17T12:03:56.393Z,75.10
2018-09-17T12:06:36.720Z,76.30
2018-09-17T12:09:10.108Z,75.60
2018-09-17T12:11:42.871Z,76.50
2018-09-17T12:14:15.656Z,77.40
2018-09-17T12:16:48.317Z,79.00
2018-09-17T12:19:21.855Z,77.60
2018-09-17T12:21:54.534Z,77.30
2018-09-17T12:24:27.243Z,76.20
2018-09-17T12:27:00.039Z,74.90
2018-09-17T12:29:33.143Z,73.40
2018-09-17T12:32:05.974Z,73.10
2018-09-17T12:34:38.713Z,72.70
2018-09-17T12:37:11.367Z,71.90
2018-09-17T12:39:44.244Z,70.30
2018-09-17T12:42:16.962Z,67.00
2018-09-17T12:44:49.738Z,67.30
2018-09-17T12:47:22.631Z,65.60
2018-09-17T12:49:55.396Z,65.60
2018-09-17T12:52:28.111Z,65.80
2018-09-17T12:55:00.781Z,67.50
2018-09-17T12:57:33.480Z,68.00
2018-09-17T13:00:06.900Z,69.30
2018-09-17T13:02:39.664Z,69.30
2018-09-17T13:05:12.475Z,71.40
2018-09-17T13:07:45.215Z,72.50
2018-09-17T13:10:17.860Z,71.30
2018-09-17T13:12:50.549Z,70.70
2018-09-17T13:15:23.203Z,70.30
2018-09-17T13:17:55.992Z,68.60
2018-09-17T13:20:28.695Z,67.00
2018-09-17T13:23:02.383Z,67.80
2018-09-17T13:25:35.254Z,67.90
2018-09-17T13:28:08.318Z,67.30
2018-09-17T13:30:41.202Z,66.20
2018-09-17T13:33:14.071Z,65.20
2018-09-17T13:35:46.752Z,64.80
2018-09-17T13:38:19.603Z,67.00
2018-09-17T13:40:52.272Z,66.90
2018-09-17T13:43:25.246Z,67.00
2018-09-17T13:45:57.936Z,68.00
2018-09-17T13:48:30.746Z,68.00
2018-09-17T13:51:04.373Z,68.80
2018-09-17T13:53:42.785Z,70.40
2018-09-17T13:56:16.487Z,72.30
2018-09-17T13:58:49.186Z,72.30
2018-09-17T14:01:23.043Z,72.10
2018-09-17T14:03:55.803Z,72.40
2018-09-17T14:06:28.559Z,72.10
2018-09-17T14:09:01.264Z,72.50
2018-09-17T14:11:33.970Z,72.10
2018-09-17T14:14:06.741Z,71.60
2018-09-17T14:18:41.817Z,71.50
2018-09-17T14:21:14.668Z,73.50
2018-09-17T14:23:47.340Z,75.80
2018-09-17T14:26:20.490Z,76.20
2018-09-17T14:28:53.020Z,76.60
2018-09-17T14:31:31.607Z,76.10
2018-09-17T14:34:04.962Z,76.80
2018-09-17T14:36:39.593Z,77.40
2018-09-17T14:39:15.133Z,77.60
2018-09-17T14:41:56.084Z,77.70
2018-09-17T14:44:33.985Z,76.60
2018-09-17T14:47:07.576Z,73.60
2018-09-17T14:49:42.433Z,69.60
2018-09-17T14:52:15.602Z,67.20
2018-09-17T14:54:49.194Z,67.80
2018-09-17T14:57:23.626Z,69.70
2018-09-17T14:59:56.583Z,71.00
2018-09-17T15:02:30.812Z,71.50
2018-09-17T15:05:08.018Z,71.30
2018-09-17T15:07:46.414Z,70.10
2018-09-17T15:10:19.605Z,68.10
2018-09-17T15:12:54.404Z,66.80
2018-09-17T15:15:30.683Z,67.10
2018-09-17T15:18:04.931Z,68.60
2018-09-17T15:20:39.429Z,69.90
2018-09-17T15:23:13.925Z,71.60
2018-09-17T15:25:46.702Z,73.00
2018-09-17T15:28:19.603Z,75.20
2018-09-17T15:30:52.303Z,76.90
2018-09-17T15:33:25.287Z,77.00
2018-09-17T15:36:01.440Z,78.00
2018-09-17T15:38:38.012Z,78.00
2018-09-17T15:41:12.661Z,78.50
2018-09-17T15:43:45.256Z,78.30
2018-09-17T15:46:20.257Z,78.60
2018-09-17T15:48:52.932Z,79.40
2018-09-17T15:51:26.479Z,79.80
2018-09-17T15:53:59.163Z,80.30
2018-09-17T15:56:32.195Z,80.40
2018-09-17T15:59:05.424Z,81.20
2018-09-17T16:01:38.350Z,81.60
2018-09-17T16:04:11.218Z,82.20
2018-09-17T16:06:43.990Z,82.10
2018-09-17T16:09:16.746Z,82.70
2018-09-17T16:11:49.535Z,84.40
2018-09-17T16:14:26.396Z,84.10
2018-09-17T16:16:59.122Z,85.60
2018-09-17T16:19:35.251Z,86.20
2018-09-17T16:22:08.076Z,87.40
2018-09-17T16:24:41.151Z,88.30
2018-09-17T16:27:18.601Z,88.80
2018-09-17T16:29:51.404Z,89.80
2018-09-17T16:32:27.990Z,89.90
2018-09-17T16:35:02.307Z,90.30
2018-09-17T16:37:37.466Z,90.60
2018-09-17T16:40:12.461Z,90.70
2018-09-17T16:42:46.807Z,90.70
2018-09-17T16:45:19.954Z,90.90
2018-09-17T16:47:52.706Z,91.00
2018-09-17T16:50:25.673Z,91.10
2018-09-17T16:52:59.900Z,91.30
2018-09-17T16:55:33.114Z,91.60
2018-09-17T16:58:06.006Z,91.90
2018-09-17T17:00:39.533Z,92.00
2018-09-17T17:03:12.547Z,92.10
2018-09-17T17:05:45.367Z,92.10
2018-09-17T17:08:19.248Z,92.20
2018-09-17T17:10:53.379Z,92.50
2018-09-17T17:13:27.255Z,92.20
2018-09-17T17:16:03.330Z,92.30
2018-09-17T17:18:37.865Z,92.40
2018-09-17T17:21:12.309Z,92.70
2018-09-17T17:23:46.011Z,92.70
2018-09-17T17:26:21.983Z,92.80
2018-09-17T17:28:57.368Z,92.80
2018-09-17T17:31:31.425Z,92.90
2018-09-17T17:34:04.980Z,93.10
2018-09-17T17:36:38.908Z,93.30
2018-09-17T17:39:14.166Z,93.20
2018-09-17T17:41:47.796Z,93.20
2018-09-17T17:44:21.169Z,93.20
2018-09-17T17:47:01.483Z,93.20
2018-09-17T17:49:34.261Z,93.20
2018-09-17T17:52:09.880Z,93.20
2018-09-17T17:54:45.299Z,93.40
2018-09-17T17:57:19.433Z,93.50
2018-09-17T17:59:52.844Z,93.40
2018-09-17T18:02:27.573Z,93.60
2018-09-17T18:05:01.624Z,93.60
2018-09-17T18:07:36.322Z,93.50
2018-09-17T18:10:10.380Z,93.70
2018-09-17T18:12:44.969Z,93.70
2018-09-17T18:15:21.673Z,93.70
2018-09-17T18:17:55.549Z,93.70
2018-09-17T18:20:29.810Z,93.80
2018-09-17T18:23:03.072Z,93.80
2018-09-17T18:25:36.177Z,93.60
2018-09-17T18:30:55.263Z,93.70
2018-09-17T18:33:29.889Z,93.80
2018-09-17T18:36:03.623Z,93.90
2018-09-17T18:38:38.446Z,93.80
2018-09-17T18:43:55.492Z,93.70
2018-09-17T18:46:32.687Z,93.70
2018-09-17T18:49:13.345Z,93.60
2018-09-17T18:51:50.155Z,93.50
2018-09-17T18:54:24.597Z,93.40
2018-09-17T18:56:59.420Z,93.40
2018-09-17T18:59:46.716Z,93.40
2018-09-17T19:02:24.841Z,93.60
2018-09-17T19:05:00.209Z,93.30
2018-09-17T19:11:02.483Z,93.30
2018-09-17T19:13:36.632Z,93.30
2018-09-17T19:16:21.756Z,93.30
2018-09-17T19:18:57.208Z,93.20
2018-09-17T19:21:36.167Z,93.00
2018-09-17T19:24:09.625Z,93.10
2018-09-17T19:26:46.126Z,93.00
2018-09-17T19:29:21.529Z,93.10
2018-09-17T19:31:55.253Z,92.90
2018-09-17T19:34:28.842Z,92.90
2018-09-17T19:37:09.634Z,92.80
2018-09-17T19:39:50.471Z,92.70
2018-09-17T19:42:25.227Z,92.60
2018-09-17T19:45:12.329Z,92.50
2018-09-17T19:47:53.517Z,92.50
2018-09-17T19:50:32.685Z,92.50
2018-09-17T19:53:07.780Z,92.50
2018-09-17T19:55:42.591Z,92.60
2018-09-17T20:00:27.856Z,92.60
2018-09-17T20:03:01.713Z,92.70
2018-09-17T20:05:41.628Z,92.70
2018-09-17T20:08:16.265Z,92.80
2018-09-17T20:10:50.062Z,92.90
2018-09-17T20:13:24.312Z,92.80
2018-09-17T20:16:02.089Z,92.80
2018-09-17T20:18:36.447Z,92.80
2018-09-17T20:21:09.362Z,92.60
2018-09-17T20:23:42.206Z,92.60
2018-09-17T20:26:15.723Z,92.40
2018-09-17T20:28:53.693Z,92.40
2018-09-17T20:31:26.484Z,92.50
2018-09-17T20:33:59.389Z,92.50
2018-09-17T20:36:32.233Z,92.60
2018-09-17T20:39:07.608Z,92.60
2018-09-17T20:41:40.407Z,92.60
2018-09-17T20:44:13.238Z,92.20
2018-09-17T20:46:46.094Z,92.60
2018-09-17T20:49:18.908Z,92.50
2018-09-17T20:51:51.758Z,92.60
2018-09-17T20:54:24.693Z,92.60
2018-09-17T20:56:57.504Z,92.70
2018-09-17T20:59:30.378Z,92.80
2018-09-17T21:02:03.088Z,93.00
2018-09-17T21:04:36.029Z,93.50
2018-09-17T21:07:08.927Z,93.20
2018-09-17T21:09:42.697Z,93.30
2018-09-17T21:12:15.465Z,93.50
2018-09-17T21:14:48.423Z,93.50
2018-09-17T21:17:21.342Z,93.60
2018-09-17T21:19:54.272Z,93.50
2018-09-17T21:22:27.069Z,93.50
2018-09-17T21:24:59.948Z,93.50
2018-09-17T21:27:32.631Z,93.40
2018-09-17T21:30:06.075Z,93.00
2018-09-17T21:32:38.858Z,92.90
2018-09-17T21:35:11.564Z,92.70
2018-09-17T21:37:44.274Z,92.50
2018-09-17T21:40:17.034Z,92.40
2018-09-17T21:42:49.785Z,92.30
2018-09-17T21:45:22.354Z,92.10
2018-09-17T21:47:55.721Z,92.00
2018-09-17T21:50:28.392Z,92.00
2018-09-17T21:53:01.192Z,92.00
2018-09-17T21:55:34.109Z,92.60
2018-09-17T21:58:06.760Z,92.80
2018-09-17T22:00:45.114Z,92.90
2018-09-17T22:03:17.850Z,93.00
2018-09-17T22:05:50.552Z,93.00
2018-09-17T22:08:23.237Z,93.40
2018-09-17T22:10:55.949Z,93.50
2018-09-17T22:13:28.661Z,93.60
2018-09-17T22:16:01.373Z,93.80
2018-09-17T22:18:34.197Z,94.30
2018-09-17T22:21:06.896Z,95.00
2018-09-17T22:23:39.603Z,95.60
2018-09-17T22:26:12.300Z,95.90
2018-09-17T22:28:45.681Z,96.00
2018-09-17T22:31:18.985Z,96.40
2018-09-17T22:33:51.629Z,96.40
2018-09-17T22:36:25.464Z,96.40
2018-09-17T22:38:58.112Z,96.50
2018-09-17T22:41:30.753Z,96.40
2018-09-17T22:44:04.139Z,96.60
2018-09-17T22:46:36.771Z,96.70
2018-09-17T22:49:09.609Z,96.80
2018-09-17T22:51:42.973Z,97.30
2018-09-17T22:54:15.684Z,97.60
2018-09-17T22:56:48.930Z,98.10
2018-09-17T22:59:21.954Z,98.40
2018-09-17T23:01:54.760Z,98.60
2018-09-17T23:04:27.551Z,98.70
2018-09-17T23:07:00.596Z,98.80
2018-09-17T23:09:34.771Z,98.80
2018-09-17T23:12:07.494Z,98.70
2018-09-17T23:14:40.109Z,98.70
2018-09-17T23:17:12.754Z,98.70
2018-09-17T23:19:45.490Z,98.80
2018-09-17T23:22:18.210Z,98.80
2018-09-17T23:24:51.022Z,98.80
2018-09-17T23:27:23.679Z,98.60
2018-09-17T23:29:56.375Z,98.40
2018-09-17T23:32:29.767Z,98.40
2018-09-17T23:35:02.734Z,98.30
2018-09-17T23:37:35.501Z,98.20
2018-09-17T23:40:08.160Z,98.10
2018-09-17T23:42:40.791Z,98.00
2018-09-17T23:45:13.477Z,97.90
2018-09-17T23:47:46.247Z,97.80
2018-09-17T23:50:18.923Z,97.80
2018-09-17T23:52:51.572Z,97.90
2018-09-17T23:55:24.284Z,97.50
2018-09-17T23:57:56.939Z,97.40
